Time;durP1;ratioP1;P1;durP2;ratioP2;P2;SDS_P1;SDS_P2;PMS_P1;PMS_P2;Temp;Humidity;BMP_temperature;BMP_pressure;BME280_temperature;BME280_humidity;BME280_pressure;Samples;Min_cycle;Max_cycle;Signal;HPM_P1;HPM_P2
2023/01/03 00:03:02;;;;;;;5.50;4.07;;;;;;;14.58;52.52;99867.06;6918878;28;20578;-78
2023/01/03 00:06:26;;;;;;;5.77;3.70;;;;;;;14.23;53.40;99870.91;6918311;28;20419;-77
2023/01/03 00:09:47;;;;;;;3.67;3.37;;;;;;;14.01;53.81;99858.47;6918882;28;20290;-79
2023/01/03 00:13:10;;;;;;;3.03;2.83;;;;;;;14.08;53.90;99857.47;6937021;28;20303;-78
2023/01/03 00:16:32;;;;;;;3.93;3.53;;;;;;;13.92;54.72;99875.94;6944769;28;20268;-78
2023/01/03 00:19:53;;;;;;;3.90;3.30;;;;;;;14.09;54.44;99877.28;6946147;28;20900;-78
2023/01/03 00:23:15;;;;;;;3.90;3.03;;;;;;;14.20;53.70;99882.16;6946332;28;20285;-78
2023/01/03 00:26:37;;;;;;;3.57;2.93;;;;;;;14.23;53.66;99892.59;6946124;28;20203;-78
2023/01/03 00:29:59;;;;;;;4.50;3.40;;;;;;;14.33;53.44;99891.19;6945273;28;20248;-79
2023/01/03 00:33:21;;;;;;;3.50;2.80;;;;;;;14.18;53.19;99882.34;6946291;28;20222;-77
2023/01/03 00:36:42;;;;;;;2.60;2.40;;;;;;;14.19;53.25;99878.63;6945919;28;20272;-78
2023/01/03 00:40:05;;;;;;;2.90;2.50;;;;;;;14.12;53.47;99882.31;6946483;28;20204;-77
2023/01/03 00:43:29;;;;;;;3.10;2.40;;;;;;;14.27;53.18;99874.91;6950438;28;20318;-78
2023/01/03 00:46:52;;;;;;;2.37;2.17;;;;;;;14.41;52.55;99887.47;6951410;28;20345;-78
2023/01/03 00:50:14;;;;;;;2.50;2.30;;;;;;;14.25;52.71;99876.97;6951982;28;20618;-78
2023/01/03 00:53:36;;;;;;;3.37;3.03;;;;;;;14.13;53.24;99873.13;6951389;28;20338;-78
2023/01/03 00:56:58;;;;;;;5.10;3.90;;;;;;;14.16;53.47;99886.28;6951050;28;20295;-78
2023/01/03 01:00:19;;;;;;;4.23;3.70;;;;;;;13.75;53.95;99852.91;6951537;28;20570;-78
2023/01/03 01:03:45;;;;;;;5.20;3.97;;;;;;;13.49;55.21;99880.69;6951507;28;20302;-78
2023/01/03 01:07:06;;;;;;;5.03;3.50;;;;;;;13.63;55.25;99874.28;6951079;28;20254;-77
2023/01/03 01:10:28;;;;;;;4.57;3.67;;;;;;;13.68;54.82;99874.53;6951743;28;20301;-77
2023/01/03 01:13:50;;;;;;;3.97;2.63;;;;;;;13.54;55.14;99875.50;6952635;28;20227;-77
2023/01/03 01:17:11;;;;;;;2.93;2.63;;;;;;;13.60;55.16;99863.03;6954166;28;20319;-78
2023/01/03 01:20:34;;;;;;;3.53;2.90;;;;;;;13.55;55.32;99877.16;6952641;28;20345;-77
2023/01/03 01:23:56;;;;;;;3.67;2.63;;;;;;;13.77;54.55;99886.06;6951026;28;20231;-78
2023/01/03 01:27:17;;;;;;;2.77;2.57;;;;;;;13.52;54.98;99885.69;6950261;28;20226;-78
2023/01/03 01:30:39;;;;;;;2.87;2.57;;;;;;;13.55;54.66;99871.75;6948954;28;20233;-78
2023/01/03 01:34:01;;;;;;;4.47;2.60;;;;;;;13.81;54.02;99892.78;6950919;28;20248;-78
2023/01/03 01:37:23;;;;;;;2.90;2.40;;;;;;;13.54;54.78;99897.19;6949653;28;20228;-78
2023/01/03 01:40:45;;;;;;;2.93;2.43;;;;;;;13.65;54.69;99909.34;6950578;28;20349;-78
2023/01/03 01:44:38;;;;;;;3.47;2.40;;;;;;;13.81;54.22;99890.88;6950560;28;20235;-77
2023/01/03 01:48:02;;;;;;;3.17;2.47;;;;;;;13.70;54.36;99885.19;6950239;28;20224;-78
2023/01/03 01:51:26;;;;;;;2.33;2.13;;;;;;;13.73;53.80;99906.47;6950639;28;20207;-78
2023/01/03 01:54:51;;;;;;;2.90;2.60;;;;;;;13.28;55.04;99904.25;6949460;28;20284;-78
2023/01/03 01:58:14;;;;;;;3.47;2.67;;;;;;;12.27;57.01;99822.44;6949154;28;20253;-78
2023/01/03 02:01:35;;;;;;;2.40;2.20;;;;;;;13.06;56.78;99921.56;6935347;28;20215;-78
2023/01/03 02:04:57;;;;;;;2.37;2.17;;;;;;;13.35;55.74;99911.41;6922445;28;20236;-78
2023/01/03 02:08:19;;;;;;;2.47;2.27;;;;;;;13.13;56.22;99920.59;6940686;28;20227;-78
2023/01/03 02:13:04;;;;;;;2.90;2.27;;;;;;;13.21;56.35;99927.75;6948969;28;20295;-77
2023/01/03 02:16:01;;;;;;;3.00;2.70;;;;;;;13.21;55.85;99919.63;6949166;28;20207;-78
2023/01/03 02:19:55;;;;;;;3.90;2.40;;;;;;;13.34;55.67;99911.59;6947315;28;20238;-78
2023/01/03 02:23:37;;;;;;;3.20;2.23;;;;;;;13.22;55.32;99896.91;6943823;28;20691;-78
2023/01/03 02:27:03;;;;;;;3.13;2.33;;;;;;;13.21;55.78;99916.91;6937971;28;20318;-78
2023/01/03 02:30:35;;;;;;;3.30;1.90;;;;;;;12.37;57.54;99897.88;6947720;28;20238;-78
2023/01/03 02:34:02;;;;;;;2.60;2.40;;;;;;;12.94;56.57;99914.94;6949578;28;20207;-78
2023/01/03 02:37:30;;;;;;;2.27;2.10;;;;;;;12.69;56.92;99897.41;6948641;28;20276;-78
2023/01/03 02:40:56;;;;;;;2.03;1.93;;;;;;;13.07;56.12;99915.09;6949160;28;20227;-77
2023/01/03 02:44:22;;;;;;;2.37;1.93;;;;;;;13.25;55.38;99916.31;6949700;28;20231;-78
2023/01/03 02:47:47;;;;;;;2.50;2.30;;;;;;;12.07;57.56;99902.50;6952167;28;20276;-77
2023/01/03 02:51:13;;;;;;;2.53;2.20;;;;;;;12.52;57.33;99901.38;6950840;28;20298;-78
2023/01/03 02:54:38;;;;;;;4.60;2.20;;;;;;;12.99;56.26;99907.13;6923111;28;20279;-77
2023/01/03 02:58:02;;;;;;;2.53;2.20;;;;;;;12.39;56.44;99893.94;6921135;28;20806;-78
2023/01/03 03:01:25;;;;;;;3.03;2.20;;;;;;;12.36;57.46;99899.75;6921209;28;20301;-78
2023/01/03 03:04:51;;;;;;;2.40;2.30;;;;;;;12.86;56.25;99905.06;6920007;28;20223;-78
2023/01/03 03:08:13;;;;;;;3.23;2.37;;;;;;;12.84;56.12;99925.25;6938161;28;20299;-78
2023/01/03 03:15:17;;;;;;;2.50;2.30;;;;;;;12.98;54.68;99919.81;6948023;28;20557;-78
2023/01/03 03:18:48;;;;;;;2.33;2.10;;;;;;;12.55;55.32;99937.00;6947496;28;20227;-78
2023/01/03 03:25:59;;;;;;;2.60;2.40;;;;;;;11.85;57.94;99935.00;6947444;28;20207;-78
2023/01/03 03:29:20;;;;;;;2.50;2.30;;;;;;;12.23;57.49;99936.59;6946012;28;20766;-78
2023/01/03 03:32:43;;;;;;;2.40;2.20;;;;;;;12.45;56.62;99908.59;6948034;28;20188;-77
2023/01/03 03:36:09;;;;;;;2.20;2.10;;;;;;;12.24;55.99;99911.22;6947042;28;20286;-79
2023/01/03 03:47:00;;;;;;;8.03;5.83;;;;;;;12.07;57.76;99909.75;6919315;28;20188;-78
2023/01/03 03:50:26;;;;;;;5.83;4.60;;;;;;;12.19;57.29;99908.25;6919679;28;20269;-78
2023/01/03 03:53:48;;;;;;;2.07;1.97;;;;;;;12.07;57.11;99925.97;6919739;28;20345;-78
2023/01/03 03:57:15;;;;;;;2.10;2.00;;;;;;;11.38;58.81;99929.03;6919537;28;20381;-78
2023/01/03 04:00:39;;;;;;;2.70;2.50;;;;;;;11.22;60.36;99932.72;6919937;28;20812;-78
2023/01/03 04:04:05;;;;;;;3.47;2.50;;;;;;;11.46;59.58;99931.69;6939008;28;20211;-77
2023/01/03 04:07:27;;;;;;;2.63;2.43;;;;;;;11.87;58.58;99927.56;6946328;28;20261;-78
2023/01/03 04:10:49;;;;;;;6.80;2.67;;;;;;;12.02;57.83;99947.31;6946886;28;20206;-78
2023/01/03 04:14:12;;;;;;;2.90;2.53;;;;;;;12.01;56.83;99946.50;6946958;28;20206;-78
2023/01/03 04:17:33;;;;;;;3.03;2.13;;;;;;;11.67;57.12;99921.88;6945787;28;20779;-78
2023/01/03 04:20:56;;;;;;;2.73;2.53;;;;;;;11.49;58.12;99953.75;6947174;28;20266;-78
2023/01/03 04:24:19;;;;;;;2.60;2.40;;;;;;;11.54;57.36;99916.25;6946570;28;20231;-78
2023/01/03 04:27:40;;;;;;;2.30;2.10;;;;;;;11.82;56.95;99948.91;6945945;28;20227;-78
2023/01/03 04:31:03;;;;;;;2.57;2.37;;;;;;;11.65;56.67;99950.94;6945592;28;20252;-77
2023/01/03 04:34:24;;;;;;;2.50;2.30;;;;;;;11.11;58.37;99959.31;6946325;28;20206;-77
2023/01/03 04:37:46;;;;;;;2.20;2.10;;;;;;;10.97;59.27;99955.53;6945307;28;20788;-77
2023/01/03 04:41:08;;;;;;;4.40;2.37;;;;;;;11.33;58.06;99942.28;6946359;28;20305;-78
2023/01/03 04:44:30;;;;;;;5.30;2.50;;;;;;;10.62;58.75;99950.72;6947334;28;20231;-79
2023/01/03 04:47:54;;;;;;;3.40;2.50;;;;;;;10.67;59.18;99950.19;6946020;28;20223;-78
2023/01/03 04:51:15;;;;;;;2.80;2.50;;;;;;;11.10;58.33;99952.25;6946687;28;20289;-79
2023/01/03 04:54:38;;;;;;;2.70;2.50;;;;;;;11.21;57.39;99962.63;6946648;28;20211;-78
2023/01/03 04:57:59;;;;;;;2.47;2.27;;;;;;;11.14;57.85;99965.19;6946403;28;20752;-78
2023/01/03 05:01:21;;;;;;;4.47;2.27;;;;;;;11.14;57.30;99945.47;6947195;28;20355;-78
2023/01/03 05:04:44;;;;;;;3.33;2.20;;;;;;;11.04;57.51;99963.78;6946888;28;20313;-79
2023/01/03 05:08:06;;;;;;;4.23;2.30;;;;;;;10.86;57.58;99969.44;6945063;28;20376;-78
2023/01/03 05:11:27;;;;;;;2.40;2.20;;;;;;;10.96;57.64;99955.72;6944560;28;20361;-77
2023/01/03 05:14:49;;;;;;;2.27;2.17;;;;;;;10.89;57.36;99962.84;6945115;28;20211;-78
2023/01/03 05:18:10;;;;;;;2.80;2.60;;;;;;;10.68;58.20;99963.50;6944816;28;20292;-78
2023/01/03 05:28:53;;;;;;;2.90;2.00;;;;;;;10.89;57.07;99976.34;6944068;28;20226;-78
2023/01/03 05:32:15;;;;;;;4.60;2.40;;;;;;;9.93;59.46;99961.44;6950540;28;20202;-78
2023/01/03 05:35:37;;;;;;;2.17;2.07;;;;;;;10.63;58.61;99968.56;6950059;28;20245;-78
2023/01/03 05:38:59;;;;;;;2.20;2.00;;;;;;;10.42;58.79;99973.75;6949728;28;20230;-78
2023/01/03 05:42:21;;;;;;;2.40;2.20;;;;;;;10.53;58.69;99962.59;6937164;28;20293;-78
2023/01/03 05:45:42;;;;;;;2.07;1.90;;;;;;;10.69;58.38;99975.94;6922657;28;20231;-78
2023/01/03 05:49:04;;;;;;;2.30;2.10;;;;;;;10.78;58.25;99983.00;6922090;28;20228;-78
2023/01/03 05:52:26;;;;;;;2.13;2.03;;;;;;;10.68;57.91;99944.59;6929446;28;20341;-78
2023/01/03 05:55:48;;;;;;;2.70;2.50;;;;;;;10.37;58.65;99991.47;6949921;28;20210;-78
2023/01/03 05:59:10;;;;;;;4.07;2.30;;;;;;;10.01;59.92;99993.75;6947963;28;20306;-78
2023/01/03 06:02:32;;;;;;;3.40;2.50;;;;;;;9.70;61.01;99987.41;6944511;28;20220;-78
2023/01/03 06:05:53;;;;;;;3.50;2.70;;;;;;;10.37;60.07;99991.47;6951726;28;20231;-78
2023/01/03 06:09:15;;;;;;;2.97;2.67;;;;;;;10.54;59.80;99998.47;6948747;28;20837;-78
2023/01/03 06:12:38;;;;;;;2.60;2.40;;;;;;;10.52;58.80;99998.63;6949866;28;20719;-78
2023/01/03 06:19:42;;;;;;;3.53;3.23;;;;;;;10.04;59.13;100009.59;6949910;28;20215;-78
2023/01/03 06:23:04;;;;;;;4.77;3.70;;;;;;;9.92;59.55;100005.56;6949615;28;20211;-78
2023/01/03 06:26:25;;;;;;;5.10;3.37;;;;;;;10.10;59.89;100019.69;6948091;28;20836;-78
2023/01/03 06:29:48;;;;;;;4.30;3.20;;;;;;;10.31;59.60;100005.63;6947145;28;20318;-78
2023/01/03 06:33:10;;;;;;;2.60;2.40;;;;;;;10.56;58.73;100009.94;6948733;28;20264;-79
2023/01/03 06:36:33;;;;;;;2.80;2.60;;;;;;;10.44;58.20;100009.47;6947488;28;20207;-81
2023/01/03 06:39:54;;;;;;;4.20;2.57;;;;;;;9.56;59.45;100014.22;6923914;28;20233;-80
2023/01/03 06:43:16;;;;;;;3.07;2.87;;;;;;;9.80;60.06;100012.31;6923158;28;20349;-79
2023/01/03 06:54:05;;;;;;;5.37;4.20;;;;;;;9.71;60.33;100037.59;6943822;28;20210;-79
2023/01/03 06:57:26;;;;;;;3.90;3.60;;;;;;;9.86;60.28;100035.06;6940000;28;20258;-79
2023/01/03 07:00:48;;;;;;;3.60;3.30;;;;;;;9.80;59.99;100030.34;6950523;28;20349;-80
2023/01/03 07:04:11;;;;;;;2.87;2.57;;;;;;;9.80;59.22;100031.16;6949885;28;20276;-79
2023/01/03 07:07:32;;;;;;;2.80;2.60;;;;;;;9.50;59.88;100041.81;6948545;28;20231;-79
2023/01/03 07:10:54;;;;;;;4.63;4.20;;;;;;;8.76;62.04;100013.28;6949708;28;20299;-79
2023/01/03 07:14:22;;;;;;;3.30;2.80;;;;;;;9.74;60.95;100050.69;6949046;28;20703;-78
2023/01/03 07:17:43;;;;;;;4.67;3.13;;;;;;;9.96;59.37;100035.69;6947289;28;20258;-78
2023/01/03 07:21:07;;;;;;;3.50;3.20;;;;;;;9.66;59.12;99998.69;6954959;28;20267;-79
2023/01/03 07:24:28;;;;;;;5.67;5.10;;;;;;;10.11;58.60;100044.78;6952541;28;20266;-80
2023/01/03 07:27:55;;;;;;;5.40;3.80;;;;;;;9.92;58.45;100053.22;6951106;28;20314;-82
2023/01/03 07:31:16;;;;;;;4.53;3.33;;;;;;;9.72;58.85;100046.50;6957136;28;20198;-79
2023/01/03 07:34:38;;;;;;;4.67;3.83;;;;;;;9.66;59.10;100044.47;6951185;28;20364;-80
2023/01/03 07:38:01;;;;;;;4.07;3.70;;;;;;;10.11;58.71;100063.66;6941219;28;20239;-80
2023/01/03 07:43:35;;;;;;;4.37;3.50;;;;;;;10.30;57.59;100053.34;6950654;28;20202;-79
2023/01/03 07:45:06;;;;;;;4.00;3.20;;;;;;;10.16;58.35;100053.19;6952965;28;20234;-79
2023/01/03 07:48:28;;;;;;;7.73;3.70;;;;;;;10.29;57.65;100061.59;6950092;28;20421;-80
2023/01/03 07:52:05;;;;;;;4.53;3.07;;;;;;;10.15;57.96;100068.53;6949658;28;20664;-79
2023/01/03 07:55:28;;;;;;;5.50;3.73;;;;;;;9.88;58.61;100038.41;6951587;28;20199;-82
2023/01/03 07:58:50;;;;;;;7.23;5.63;;;;;;;9.90;60.14;100068.69;6951826;28;20238;-80
2023/01/03 08:02:12;;;;;;;3.07;2.87;;;;;;;10.43;59.41;100079.72;6939795;28;20288;-80
2023/01/03 08:05:34;;;;;;;6.00;4.27;;;;;;;10.61;59.62;100075.81;6937492;28;20604;-82
2023/01/03 08:16:17;;;;;;;3.50;3.20;;;;;;;10.74;59.01;100086.03;6931585;28;20203;-78
2023/01/03 08:19:39;;;;;;;3.63;3.33;;;;;;;10.35;57.56;100080.63;6947743;28;20223;-83
2023/01/03 08:23:00;;;;;;;10.17;4.33;;;;;;;11.04;57.20;100079.81;6947905;28;20199;-79
2023/01/03 08:26:22;;;;;;;3.27;2.97;;;;;;;10.95;56.70;100079.03;6947817;28;20295;-78
2023/01/03 08:29:45;;;;;;;3.60;3.00;;;;;;;10.90;56.33;100092.19;6947490;28;20223;-80
2023/01/03 08:33:09;;;;;;;4.13;3.40;;;;;;;10.27;59.19;100091.41;6949952;28;20343;-80
2023/01/03 08:36:33;;;;;;;4.23;3.83;;;;;;;10.28;59.15;100089.56;6946233;28;20289;-80
2023/01/03 08:39:57;;;;;;;5.47;4.57;;;;;;;10.02;60.95;100099.66;6950962;28;20304;-80
2023/01/03 08:43:19;;;;;;;5.70;4.87;;;;;;;10.37;60.96;100096.59;6952749;28;20264;-79
2023/01/03 08:46:44;;;;;;;5.60;4.50;;;;;;;10.94;59.00;100077.34;6953912;28;20223;-79
2023/01/03 08:50:06;;;;;;;3.60;3.30;;;;;;;11.76;57.39;100095.56;6957144;28;20253;-80
2023/01/03 08:53:28;;;;;;;5.70;3.10;;;;;;;12.13;55.75;100092.84;6935947;28;20207;-80
2023/01/03 08:56:49;;;;;;;9.10;3.50;;;;;;;11.94;55.88;100085.25;6945917;28;20226;-80
2023/01/03 09:00:12;;;;;;;4.40;4.00;;;;;;;12.11;56.19;100116.53;6958203;28;20253;-80
2023/01/03 09:03:35;;;;;;;4.93;3.60;;;;;;;11.86;54.67;100074.53;6949426;28;20214;-80
2023/01/03 09:06:56;;;;;;;4.53;3.73;;;;;;;11.95;56.05;100119.38;6951970;28;20294;-79
2023/01/03 09:10:18;;;;;;;4.80;3.80;;;;;;;12.08;56.03;100116.88;6952032;28;20202;-80
2023/01/03 09:13:40;;;;;;;4.27;3.83;;;;;;;12.11;56.22;100101.13;6952161;28;20356;-79
2023/01/03 09:17:02;;;;;;;4.10;3.73;;;;;;;12.29;55.01;100112.47;6951723;28;20571;-79
2023/01/03 09:20:24;;;;;;;8.10;4.40;;;;;;;12.04;55.47;100115.59;6952765;28;20232;-79
2023/01/03 09:23:46;;;;;;;6.50;4.93;;;;;;;12.02;56.50;100128.44;6951683;28;20308;-80
2023/01/03 09:27:07;;;;;;;5.17;4.57;;;;;;;12.20;56.58;100120.81;6951495;28;20276;-79
2023/01/03 09:30:29;;;;;;;7.07;5.50;;;;;;;11.93;57.21;100121.44;6951120;28;20480;-79
2023/01/03 09:33:51;;;;;;;5.47;4.77;;;;;;;11.98;57.40;100116.31;6952313;28;20241;-81
2023/01/03 09:37:14;;;;;;;6.27;5.00;;;;;;;12.37;56.58;100133.16;6945941;28;20219;-79
2023/01/03 09:40:38;;;;;;;10.40;4.80;;;;;;;12.40;55.88;100138.22;6935464;28;20272;-78
2023/01/03 09:44:03;;;;;;;5.83;5.23;;;;;;;12.72;55.50;100137.88;6950854;28;20267;-77
2023/01/03 09:47:25;;;;;;;6.67;4.83;;;;;;;12.99;54.44;100121.81;6939190;28;20707;-79
2023/01/03 09:50:47;;;;;;;5.57;5.07;;;;;;;12.70;54.45;100135.34;6936192;28;20679;-77
2023/01/03 10:05:43;;;;;;;6.33;4.20;;;;;;;13.43;53.58;100111.75;6950741;28;20210;-77
2023/01/03 10:09:16;;;;;;;8.17;4.47;;;;;;;13.75;52.58;100100.41;6950448;28;20224;-77
2023/01/03 10:12:44;;;;;;;9.17;4.67;;;;;;;14.18;52.10;100126.47;6950238;28;20904;-78
2023/01/03 10:16:09;;;;;;;8.03;4.97;;;;;;;14.02;51.91;100117.75;6948899;28;20214;-77
2023/01/03 10:19:48;;;;;;;5.53;4.60;;;;;;;13.55;54.30;100131.03;6949401;28;20265;-77
2023/01/03 10:23:10;;;;;;;5.37;4.83;;;;;;;13.41;54.80;100100.28;6949488;28;20210;-77
2023/01/03 10:26:33;;;;;;;9.70;5.33;;;;;;;13.70;54.85;100124.53;6948342;28;20639;-77
2023/01/03 10:29:56;;;;;;;5.70;4.97;;;;;;;13.85;53.65;100133.44;6948653;28;20310;-77
2023/01/03 10:33:27;;;;;;;6.87;4.17;;;;;;;14.09;53.26;100126.81;6949798;28;20478;-78
2023/01/03 10:36:49;;;;;;;5.37;4.63;;;;;;;14.06;53.16;100117.19;6948891;28;20238;-77
2023/01/03 10:40:11;;;;;;;9.67;6.00;;;;;;;14.09;53.26;100102.41;6941697;28;20234;-77
2023/01/03 10:43:42;;;;;;;6.50;4.53;;;;;;;14.21;53.71;100120.66;6949720;28;20238;-77
2023/01/03 10:47:09;;;;;;;5.50;4.93;;;;;;;14.46;53.12;100121.91;6948314;28;20230;-78
2023/01/03 10:50:37;;;;;;;5.17;4.13;;;;;;;14.35;53.66;100116.19;6949475;28;20198;-80
2023/01/03 10:54:00;;;;;;;6.93;4.63;;;;;;;14.73;53.09;100112.91;6948575;28;20259;-78
2023/01/03 10:57:42;;;;;;;6.13;5.07;;;;;;;14.85;52.47;100115.88;6949345;28;20224;-78
2023/01/03 11:01:19;;;;;;;7.50;5.33;;;;;;;15.21;51.47;100098.28;6949491;28;20255;-78
2023/01/03 11:04:41;;;;;;;7.10;5.43;;;;;;;15.00;51.69;100100.31;6956726;28;20209;-79
2023/01/03 11:08:14;;;;;;;5.20;4.57;;;;;;;15.74;50.05;100104.75;6948099;28;20308;-77
2023/01/03 11:11:37;;;;;;;8.20;4.73;;;;;;;15.80;48.74;100085.72;6949227;28;20221;-77
2023/01/03 11:15:00;;;;;;;8.17;5.63;;;;;;;15.47;50.78;100092.16;6948630;28;20675;-79
2023/01/03 11:18:24;;;;;;;7.07;5.13;;;;;;;16.04;49.05;100081.56;6947729;28;20233;-74
2023/01/03 11:21:50;;;;;;;5.57;5.07;;;;;;;16.32;48.30;100080.28;6949163;28;20205;-78
2023/01/03 11:25:20;;;;;;;5.50;4.70;;;;;;;15.98;49.13;100090.56;6947308;28;20284;-78
2023/01/03 11:28:51;;;;;;;5.70;4.40;;;;;;;16.45;47.44;100082.19;6920708;28;20222;-77
2023/01/03 11:32:23;;;;;;;14.80;7.93;;;;;;;16.69;48.25;100066.00;6920580;28;20278;-77
2023/01/03 11:35:52;;;;;;;4.77;3.50;;;;;;;16.16;47.00;100067.09;6932836;28;20634;-76
2023/01/03 11:39:32;;;;;;;2.70;2.50;;;;;;;16.70;44.87;100062.22;6947175;28;20613;-76
2023/01/03 11:43:00;;;;;;;3.50;2.20;;;;;;;17.28;44.49;100063.88;6947408;28;20220;-76
2023/01/03 11:46:33;;;;;;;1.77;1.60;;;;;;;16.24;43.59;100050.59;6947106;28;20416;-76
2023/01/03 11:50:08;;;;;;;2.33;2.13;;;;;;;15.41;46.97;100049.47;6947747;28;20319;-76
2023/01/03 11:53:35;;;;;;;2.20;2.10;;;;;;;15.65;46.11;100068.78;6947749;28;20661;-76
2023/01/03 11:56:58;;;;;;;2.60;1.80;;;;;;;15.47;45.97;100065.81;6947138;28;20644;-76
2023/01/03 12:00:29;;;;;;;2.60;2.10;;;;;;;15.68;46.13;100065.63;6928042;28;20290;-76
2023/01/03 12:04:06;;;;;;;3.47;2.17;;;;;;;15.66;46.37;100051.41;6919807;28;20642;-77
2023/01/03 12:07:34;;;;;;;2.33;2.10;;;;;;;15.41;47.06;100044.91;6919217;28;20241;-77
2023/01/03 12:11:03;;;;;;;2.47;2.27;;;;;;;15.69;46.65;100061.84;6927877;28;20203;-81
2023/01/03 12:14:30;;;;;;;3.40;1.90;;;;;;;15.74;45.76;100053.91;6947748;28;20270;-77
2023/01/03 12:17:56;;;;;;;2.97;2.23;;;;;;;17.04;44.11;100040.09;6946476;28;20749;-78
2023/01/03 12:21:21;;;;;;;2.43;2.23;;;;;;;17.23;42.55;100030.97;6952545;28;20296;-75
2023/01/03 12:24:47;;;;;;;1.80;1.70;;;;;;;18.06;39.59;100038.00;6947833;28;20348;-76
2023/01/03 12:28:15;;;;;;;2.00;1.80;;;;;;;17.98;40.47;100041.00;6940874;28;20347;-77
2023/01/03 12:31:39;;;;;;;2.50;2.30;;;;;;;18.02;39.66;100026.69;6950823;28;20199;-75
2023/01/03 12:35:13;;;;;;;3.00;1.93;;;;;;;18.28;39.42;100029.16;6946273;28;20207;-76
2023/01/03 12:38:37;;;;;;;2.80;2.00;;;;;;;16.98;41.98;100031.97;6952447;28;20233;-77
2023/01/03 12:42:03;;;;;;;2.50;2.27;;;;;;;16.70;42.49;100032.25;6954440;28;20300;-76
2023/01/03 12:45:37;;;;;;;2.73;1.90;;;;;;;16.64;42.45;100022.22;6955301;28;20345;-77
2023/01/03 12:49:02;;;;;;;4.37;1.87;;;;;;;16.36;42.12;100029.84;6954777;28;20224;-77
2023/01/03 12:52:24;;;;;;;2.03;1.93;;;;;;;17.12;41.81;100015.34;6955045;28;20255;-76
2023/01/03 12:55:58;;;;;;;1.90;1.80;;;;;;;17.72;40.66;100027.56;6955081;28;20290;-76
2023/01/03 12:59:35;;;;;;;2.20;1.77;;;;;;;18.42;38.88;100027.16;6951752;28;20835;-76
2023/01/03 13:03:01;;;;;;;2.10;1.70;;;;;;;18.17;38.88;100010.78;6953840;28;20713;-76
2023/01/03 13:06:25;;;;;;;1.97;1.70;;;;;;;18.05;38.63;100028.97;6955108;28;20356;-76
2023/01/03 13:09:51;;;;;;;1.70;1.60;;;;;;;17.93;39.74;100024.47;6955242;28;20376;-76
2023/01/03 13:13:15;;;;;;;2.10;1.90;;;;;;;18.19;38.90;100014.16;6951911;28;20207;-77
2023/01/03 13:16:45;;;;;;;2.30;1.83;;;;;;;18.08;38.91;100017.59;6953350;28;20199;-76
2023/01/03 13:20:26;;;;;;;2.27;1.70;;;;;;;17.89;39.17;100010.44;6954761;28;20290;-76
2023/01/03 13:23:58;;;;;;;3.13;2.13;;;;;;;16.49;41.73;100008.03;6955195;28;20198;-76
2023/01/03 13:27:37;;;;;;;3.33;1.83;;;;;;;17.15;40.90;99990.38;6953042;28;20366;-77
2023/01/03 13:31:45;;;;;;;2.53;1.90;;;;;;;17.65;40.08;99996.78;6955015;28;20646;-76
2023/01/03 13:35:30;;;;;;;3.63;1.97;;;;;;;17.38;39.33;100006.19;6954945;28;20217;-77
2023/01/03 13:38:51;;;;;;;2.90;1.80;;;;;;;16.69;40.82;100008.00;6954197;28;20241;-76
2023/01/03 13:42:20;;;;;;;2.80;2.00;;;;;;;16.85;41.18;99993.88;6955391;28;20348;-77
2023/01/03 13:45:52;;;;;;;2.13;1.90;;;;;;;17.05;40.83;100008.25;6953165;28;20837;-76
2023/01/03 13:49:17;;;;;;;1.93;1.80;;;;;;;16.78;40.93;99999.34;6951872;28;20536;-75
2023/01/03 13:52:58;;;;;;;2.13;1.93;;;;;;;16.79;41.27;99995.56;6951093;28;20197;-76
2023/01/03 13:56:21;;;;;;;2.70;1.70;;;;;;;16.83;41.78;99983.22;6949897;28;20189;-76
2023/01/03 13:59:46;;;;;;;2.50;1.83;;;;;;;16.29;42.89;99987.34;6950717;28;20310;-76
2023/01/03 14:03:48;;;;;;;1.87;1.77;;;;;;;16.80;43.02;99999.16;6935314;28;20210;-76
2023/01/03 14:07:34;;;;;;;2.20;1.80;;;;;;;16.73;43.08;99998.31;6940487;28;20236;-77
2023/01/03 14:11:25;;;;;;;6.20;2.03;;;;;;;16.48;43.79;99986.47;6949902;28;20197;-77
2023/01/03 14:14:51;;;;;;;8.90;3.27;;;;;;;16.63;43.24;99997.97;6921460;28;20214;-77
2023/01/03 14:18:19;;;;;;;2.77;2.10;;;;;;;16.39;43.71;99995.94;6939997;28;20712;-76
2023/01/03 14:21:45;;;;;;;3.37;2.67;;;;;;;16.51;43.42;99986.06;6930609;28;20216;-76
2023/01/03 14:25:09;;;;;;;6.00;3.77;;;;;;;16.40;43.11;99992.16;6922281;28;20252;-76
2023/01/03 14:28:33;;;;;;;3.33;2.50;;;;;;;16.62;42.33;100002.56;6964823;28;20628;-76
2023/01/03 14:31:56;;;;;;;2.23;2.07;;;;;;;16.39;42.61;100004.09;6952038;28;20216;-76
2023/01/03 14:35:36;;;;;;;4.87;1.80;;;;;;;16.20;42.71;100003.06;6949946;28;20248;-77
2023/01/03 14:38:59;;;;;;;1.90;1.70;;;;;;;15.97;43.47;100009.97;6946301;28;20224;-76
2023/01/03 14:42:21;;;;;;;4.50;2.07;;;;;;;16.34;43.26;100018.31;6940226;28;20348;-76
2023/01/03 14:45:44;;;;;;;2.77;2.07;;;;;;;15.96;44.30;100014.59;6939995;28;20211;-76
2023/01/03 14:49:07;;;;;;;2.30;2.10;;;;;;;16.21;44.53;100004.72;6921236;28;20253;-76
2023/01/03 14:52:31;;;;;;;4.00;2.30;;;;;;;16.42;43.56;100015.41;6926444;28;20783;-76
2023/01/03 14:55:54;;;;;;;3.30;2.30;;;;;;;15.88;44.08;100030.28;6928268;28;20221;-75
2023/01/03 14:59:16;;;;;;;1.97;1.83;;;;;;;15.95;45.01;100021.09;6939343;28;20373;-76
2023/01/03 15:02:41;;;;;;;2.80;1.97;;;;;;;16.23;43.94;100026.28;6921293;28;20309;-76
2023/01/03 15:06:16;;;;;;;2.03;1.90;;;;;;;16.29;44.40;100020.81;6947827;28;20266;-76
2023/01/03 15:09:37;;;;;;;3.53;1.90;;;;;;;16.11;44.66;100019.81;6947639;28;20379;-76
2023/01/03 15:13:00;;;;;;;6.43;2.10;;;;;;;16.27;44.16;100025.66;6944295;28;20563;-76
2023/01/03 15:16:26;;;;;;;2.87;2.00;;;;;;;16.07;44.66;100011.25;6944284;28;20231;-77
2023/01/03 15:19:51;;;;;;;2.43;1.90;;;;;;;15.77;45.35;100018.16;6921177;28;20236;-76
2023/01/03 15:23:29;;;;;;;2.63;1.90;;;;;;;15.24;45.95;100019.09;6921392;28;20274;-77
2023/01/03 15:26:52;;;;;;;2.63;2.10;;;;;;;15.19;45.51;100028.91;6945373;28;20222;-77
2023/01/03 15:30:23;;;;;;;2.20;2.10;;;;;;;14.93;46.60;100026.94;6948524;28;20295;-76
2023/01/03 15:33:44;;;;;;;5.70;3.27;;;;;;;14.64;47.58;100029.13;6947859;28;20208;-77
2023/01/03 15:37:13;;;;;;;5.03;3.93;;;;;;;14.26;48.13;100025.97;6946963;28;20223;-76
2023/01/03 15:40:36;;;;;;;4.60;4.20;;;;;;;14.52;47.60;100034.25;6941548;28;20231;-76
2023/01/03 15:43:57;;;;;;;6.57;4.37;;;;;;;13.42;49.81;100041.50;6943259;28;20208;-77
2023/01/03 15:47:19;;;;;;;6.40;4.33;;;;;;;13.42;50.21;100045.06;6942984;28;20774;-77
2023/01/03 15:50:43;;;;;;;4.73;4.23;;;;;;;13.17;51.06;100040.19;6948527;28;20783;-79
2023/01/03 15:54:11;;;;;;;7.93;5.53;;;;;;;13.53;49.86;100047.25;6947911;28;20245;-80
2023/01/03 15:57:32;;;;;;;7.67;6.40;;;;;;;13.41;50.25;100054.22;6948102;28;20287;-79
2023/01/03 16:00:54;;;;;;;8.60;6.20;;;;;;;13.42;50.23;100055.91;6947912;28;20728;-76
2023/01/03 16:04:16;;;;;;;7.73;5.80;;;;;;;13.44;49.53;100053.81;6927042;28;20280;-77
2023/01/03 16:07:39;;;;;;;9.27;5.10;;;;;;;12.87;50.65;100058.31;6944495;28;20284;-77
2023/01/03 16:11:03;;;;;;;6.43;4.80;;;;;;;12.72;51.74;100068.34;6944522;28;20214;-77
2023/01/03 16:14:33;;;;;;;6.60;4.90;;;;;;;13.08;51.00;100074.66;6944477;28;20286;-81
2023/01/03 16:17:54;;;;;;;5.93;4.93;;;;;;;12.89;50.58;100068.97;6945099;28;20249;-80
2023/01/03 16:21:16;;;;;;;10.13;5.80;;;;;;;11.86;52.56;100067.25;6945097;28;20261;-79
2023/01/03 16:24:38;;;;;;;6.57;5.10;;;;;;;12.39;52.78;100077.03;6944496;28;20699;-78
2023/01/03 16:28:01;;;;;;;9.80;5.70;;;;;;;12.62;51.31;100073.19;6944577;28;20231;-77
2023/01/03 16:31:27;;;;;;;7.70;5.50;;;;;;;12.70;51.63;100083.91;6945791;28;20671;-76
2023/01/03 16:34:49;;;;;;;8.57;5.77;;;;;;;12.22;52.44;100070.13;6927902;28;20293;-76
2023/01/03 16:38:13;;;;;;;8.30;5.70;;;;;;;12.26;52.03;100082.22;6939177;28;20256;-78
2023/01/03 16:41:34;;;;;;;6.83;5.40;;;;;;;11.65;53.54;100094.13;6939104;28;20207;-76
2023/01/03 16:44:58;;;;;;;6.77;4.43;;;;;;;12.12;53.63;100086.63;6944256;28;20338;-75
2023/01/03 16:48:21;;;;;;;7.93;5.23;;;;;;;12.62;52.48;100096.75;6931964;28;20251;-77
2023/01/03 16:51:49;;;;;;;5.63;4.90;;;;;;;12.30;52.22;100094.38;6942642;28;20364;-82
2023/01/03 16:55:16;;;;;;;7.67;4.70;;;;;;;12.61;51.60;100095.03;6940350;28;20198;-77